createdAt,value
2019-02-18T00:01:28.589Z,4.90
2019-02-18T00:03:59.410Z,4.90
2019-02-18T00:06:27.807Z,5.00
2019-02-18T00:08:56.561Z,4.90
2019-02-18T00:11:24.856Z,4.70
2019-02-18T00:13:52.836Z,4.80
2019-02-18T00:16:21.147Z,4.50
2019-02-18T00:18:49.786Z,4.40
2019-02-18T00:21:17.998Z,4.70
2019-02-18T00:23:46.345Z,4.70
2019-02-18T00:26:14.479Z,4.40
2019-02-18T00:28:42.598Z,4.30
2019-02-18T00:31:10.754Z,4.20
2019-02-18T00:33:39.172Z,4.10
2019-02-18T00:36:07.575Z,4.00
2019-02-18T00:38:35.585Z,4.10
2019-02-18T00:41:03.891Z,4.30
2019-02-18T00:43:32.212Z,4.60
2019-02-18T00:46:00.608Z,4.60
2019-02-18T00:48:28.820Z,4.40
2019-02-18T00:50:56.646Z,4.30
2019-02-18T00:53:24.551Z,4.40
2019-02-18T00:55:52.426Z,4.30
2019-02-18T00:58:20.573Z,4.20
2019-02-18T01:00:48.736Z,4.40
2019-02-18T01:03:17.154Z,4.10
2019-02-18T01:05:45.408Z,4.10
2019-02-18T01:08:13.371Z,4.10
2019-02-18T01:10:41.370Z,4.00
2019-02-18T01:13:10.139Z,3.90
2019-02-18T01:15:38.037Z,4.00
2019-02-18T01:18:05.989Z,3.80
2019-02-18T01:20:33.931Z,3.80
2019-02-18T01:23:02.176Z,3.80
2019-02-18T01:25:30.494Z,4.00
2019-02-18T01:27:58.818Z,3.90
2019-02-18T01:30:27.204Z,3.70
2019-02-18T01:32:55.095Z,4.10
2019-02-18T01:35:23.054Z,3.90
2019-02-18T01:37:51.038Z,3.80
2019-02-18T01:40:19.210Z,3.90
2019-02-18T01:42:47.371Z,3.70
2019-02-18T01:45:15.889Z,3.80
2019-02-18T01:47:45.211Z,3.70
2019-02-18T01:50:14.739Z,3.90
2019-02-18T01:52:43.395Z,4.00
2019-02-18T01:55:13.780Z,4.10
2019-02-18T01:57:42.710Z,4.00
2019-02-18T02:00:30.379Z,3.90
2019-02-18T02:02:58.869Z,3.90
2019-02-18T02:05:27.772Z,3.80
2019-02-18T02:07:56.891Z,4.10
2019-02-18T02:10:25.325Z,4.20
2019-02-18T02:13:29.678Z,4.10
2019-02-18T02:16:01.024Z,3.70
2019-02-18T02:18:29.021Z,3.70
2019-02-18T02:20:59.382Z,3.80
2019-02-18T02:23:28.799Z,3.70
2019-02-18T02:25:57.751Z,3.70
2019-02-18T02:28:27.121Z,3.70
2019-02-18T02:30:56.021Z,3.60
2019-02-18T02:33:24.605Z,3.60
2019-02-18T02:35:52.767Z,3.30
2019-02-18T02:38:21.782Z,3.20
2019-02-18T02:40:50.897Z,3.20
2019-02-18T02:43:18.798Z,3.10
2019-02-18T02:45:46.723Z,3.40
2019-02-18T02:48:14.790Z,3.20
2019-02-18T02:50:42.799Z,3.30
2019-02-18T02:53:10.777Z,3.40
2019-02-18T02:55:38.726Z,3.20
2019-02-18T02:58:06.605Z,3.30
2019-02-18T03:00:34.684Z,3.30
2019-02-18T03:03:02.635Z,3.10
2019-02-18T03:05:31.290Z,3.10
2019-02-18T03:07:59.198Z,3.40
2019-02-18T03:10:27.079Z,3.40
2019-02-18T03:12:54.944Z,3.20
2019-02-18T03:15:22.825Z,3.20
2019-02-18T03:17:50.663Z,3.30
2019-02-18T03:20:18.849Z,3.30
2019-02-18T03:22:46.820Z,3.10
2019-02-18T03:25:28.162Z,3.30
2019-02-18T03:28:38.034Z,3.40
2019-02-18T03:31:20.379Z,3.30
2019-02-18T03:33:54.890Z,3.10
2019-02-18T03:36:23.064Z,3.30
2019-02-18T03:38:51.078Z,3.30
2019-02-18T03:41:19.014Z,3.10
2019-02-18T03:43:47.252Z,3.10
2019-02-18T03:46:15.693Z,3.20
2019-02-18T03:48:43.684Z,3.20
2019-02-18T03:51:12.358Z,3.10
2019-02-18T03:53:40.561Z,3.00
2019-02-18T03:56:08.698Z,3.30
2019-02-18T03:58:36.787Z,3.10
2019-02-18T04:01:04.724Z,3.10
2019-02-18T04:03:32.732Z,3.10
2019-02-18T04:06:00.619Z,3.00
2019-02-18T04:08:28.563Z,3.00
2019-02-18T04:10:56.897Z,3.00
2019-02-18T04:13:24.791Z,3.00
2019-02-18T04:15:52.949Z,3.30
2019-02-18T04:18:20.944Z,3.30
2019-02-18T04:20:48.806Z,3.30
2019-02-18T04:23:16.700Z,3.10
2019-02-18T04:25:44.927Z,3.00
2019-02-18T04:28:13.231Z,3.20
2019-02-18T04:30:41.291Z,3.20
2019-02-18T04:33:09.840Z,3.20
2019-02-18T04:35:37.732Z,3.30
2019-02-18T04:38:05.762Z,3.10
2019-02-18T04:40:33.956Z,3.30
2019-02-18T04:43:02.279Z,3.10
2019-02-18T04:45:30.285Z,3.10
2019-02-18T04:47:58.650Z,3.30
2019-02-18T04:50:26.516Z,3.20
2019-02-18T04:52:54.436Z,3.10
2019-02-18T04:55:22.347Z,3.30
2019-02-18T04:57:50.416Z,3.20
2019-02-18T05:00:18.269Z,3.10
2019-02-18T05:02:46.294Z,2.90
2019-02-18T05:05:14.248Z,3.00
2019-02-18T05:07:42.234Z,3.20
2019-02-18T05:10:10.153Z,3.00
2019-02-18T05:12:38.069Z,3.00
2019-02-18T05:15:06.192Z,2.90
2019-02-18T05:17:34.128Z,2.90
2019-02-18T05:20:02.057Z,2.90
2019-02-18T05:22:29.898Z,3.00
2019-02-18T05:24:57.893Z,3.00
2019-02-18T05:27:33.033Z,3.10
2019-02-18T05:29:55.641Z,3.10
2019-02-18T05:32:23.637Z,3.10
2019-02-18T05:34:51.627Z,3.10
2019-02-18T05:37:19.732Z,3.10
2019-02-18T05:39:47.755Z,3.20
2019-02-18T05:42:15.619Z,3.20
2019-02-18T05:44:43.857Z,3.30
2019-02-18T05:47:11.696Z,3.10
2019-02-18T05:49:39.694Z,3.20
2019-02-18T05:52:08.024Z,3.20
2019-02-18T05:54:36.305Z,3.10
2019-02-18T05:57:04.694Z,3.10
2019-02-18T05:59:32.663Z,3.10
2019-02-18T06:02:01.186Z,3.10
2019-02-18T06:04:29.622Z,2.80
2019-02-18T06:06:57.683Z,2.90
2019-02-18T06:09:29.864Z,3.10
2019-02-18T06:11:56.228Z,3.00
2019-02-18T06:14:26.373Z,2.90
2019-02-18T06:16:54.941Z,2.90
2019-02-18T06:19:22.957Z,2.70
2019-02-18T06:21:51.258Z,2.80
2019-02-18T06:24:19.347Z,3.00
2019-02-18T06:26:47.792Z,2.90
2019-02-18T06:29:15.965Z,2.80
2019-02-18T06:31:43.919Z,3.00
2019-02-18T06:34:11.980Z,3.00
2019-02-18T06:36:40.013Z,2.90
2019-02-18T06:39:08.041Z,2.90
2019-02-18T06:41:36.110Z,3.00
2019-02-18T06:44:04.356Z,3.00
2019-02-18T06:46:35.305Z,3.30
2019-02-18T06:49:14.896Z,3.20
2019-02-18T06:51:42.701Z,3.10
2019-02-18T06:54:11.194Z,3.10
2019-02-18T06:57:07.853Z,3.30
2019-02-18T06:59:48.898Z,3.30
2019-02-18T07:02:42.446Z,3.00
2019-02-18T07:05:32.944Z,3.00
2019-02-18T07:08:19.016Z,3.10
2019-02-18T07:10:55.641Z,3.10
2019-02-18T07:13:23.746Z,3.40
2019-02-18T07:15:51.815Z,3.40
2019-02-18T07:18:20.150Z,3.50
2019-02-18T07:20:48.497Z,3.60
2019-02-18T07:23:16.359Z,3.60
2019-02-18T07:25:44.444Z,3.50
2019-02-18T07:28:12.545Z,3.50
2019-02-18T07:30:40.728Z,3.50
2019-02-18T07:33:08.729Z,3.60
2019-02-18T07:35:36.841Z,3.50
2019-02-18T07:38:04.854Z,3.50
2019-02-18T07:40:33.019Z,3.60
2019-02-18T07:43:00.891Z,3.50
2019-02-18T07:45:28.848Z,3.80
2019-02-18T07:47:57.215Z,3.90
2019-02-18T07:50:25.474Z,4.10
2019-02-18T07:52:53.460Z,4.10
2019-02-18T07:55:21.409Z,4.40
2019-02-18T07:57:49.537Z,4.60
2019-02-18T08:00:17.861Z,4.80
2019-02-18T08:02:46.620Z,5.00
2019-02-18T08:05:20.652Z,5.00
2019-02-18T08:07:49.099Z,5.10
2019-02-18T08:10:17.204Z,5.40
2019-02-18T08:12:45.241Z,5.70
2019-02-18T08:15:13.292Z,6.10
2019-02-18T08:17:41.652Z,6.60
2019-02-18T08:20:09.700Z,7.00
2019-02-18T08:22:38.344Z,7.50
2019-02-18T08:25:07.556Z,7.80
2019-02-18T08:27:36.137Z,8.10
2019-02-18T08:30:05.677Z,8.50
2019-02-18T08:32:33.824Z,8.90
2019-02-18T08:35:02.320Z,9.00
2019-02-18T08:37:30.534Z,9.20
2019-02-18T08:39:58.941Z,9.50
2019-02-18T08:42:27.112Z,9.60
2019-02-18T08:44:55.461Z,9.70
2019-02-18T08:47:23.648Z,9.80
2019-02-18T08:49:51.705Z,9.90
2019-02-18T08:52:20.459Z,10.10
2019-02-18T08:54:56.233Z,10.20
2019-02-18T08:57:18.811Z,10.40
2019-02-18T08:59:46.957Z,10.50
2019-02-18T09:02:15.283Z,10.60
2019-02-18T09:04:43.513Z,10.70
2019-02-18T09:07:11.511Z,10.80
2019-02-18T09:09:39.563Z,10.90
2019-02-18T09:12:07.512Z,10.90
2019-02-18T09:14:35.605Z,11.00
2019-02-18T09:17:03.666Z,11.10
2019-02-18T09:19:31.751Z,11.10
2019-02-18T09:22:22.027Z,11.30
2019-02-18T09:25:01.651Z,11.40
2019-02-18T09:27:29.636Z,11.40
2019-02-18T09:29:57.727Z,11.40
2019-02-18T09:32:26.169Z,11.40
2019-02-18T09:35:01.583Z,11.30
2019-02-18T09:37:24.368Z,11.40
2019-02-18T09:39:52.331Z,11.30
2019-02-18T09:42:20.267Z,11.30
2019-02-18T09:44:48.654Z,11.40
2019-02-18T09:47:16.710Z,11.40
2019-02-18T09:49:45.319Z,11.50
2019-02-18T09:52:13.387Z,11.50
2019-02-18T09:54:41.384Z,11.50
2019-02-18T09:57:09.504Z,11.50
2019-02-18T09:59:37.675Z,11.60
2019-02-18T10:02:05.723Z,11.70
2019-02-18T10:04:34.365Z,11.90
2019-02-18T10:07:02.355Z,12.20
2019-02-18T10:09:30.759Z,12.30
2019-02-18T10:11:58.679Z,12.40
2019-02-18T10:14:26.727Z,12.50
2019-02-18T10:16:54.724Z,12.70
2019-02-18T10:19:22.791Z,12.90
2019-02-18T10:21:50.873Z,12.80
2019-02-18T10:24:18.835Z,12.80
2019-02-18T10:26:46.783Z,12.80
2019-02-18T10:29:15.077Z,13.00
2019-02-18T10:31:43.086Z,13.20
2019-02-18T10:34:11.290Z,13.40
2019-02-18T10:36:39.323Z,13.50
2019-02-18T10:39:07.523Z,13.30
2019-02-18T10:41:35.670Z,13.30
2019-02-18T10:44:03.764Z,13.50
2019-02-18T10:46:31.687Z,13.40
2019-02-18T10:48:59.944Z,13.30
2019-02-18T10:51:27.957Z,13.60
2019-02-18T10:53:56.031Z,13.70
2019-02-18T10:56:24.276Z,13.70
2019-02-18T10:58:53.314Z,13.90
2019-02-18T11:01:21.439Z,14.20
2019-02-18T11:03:49.616Z,14.00
2019-02-18T11:06:17.481Z,13.90
2019-02-18T11:08:45.406Z,14.00
2019-02-18T11:11:16.949Z,14.10
2019-02-18T11:13:43.247Z,14.10
2019-02-18T11:16:11.305Z,14.10
2019-02-18T11:18:39.205Z,13.90
2019-02-18T11:21:07.692Z,14.00
2019-02-18T11:23:35.940Z,14.30
2019-02-18T11:26:03.980Z,14.40
2019-02-18T11:28:32.374Z,14.10
2019-02-18T11:31:00.673Z,14.00
2019-02-18T11:33:28.702Z,14.10
2019-02-18T11:35:57.766Z,14.50
2019-02-18T11:38:25.814Z,14.70
2019-02-18T11:40:53.989Z,14.80
2019-02-18T11:43:21.822Z,14.90
2019-02-18T11:45:49.896Z,14.90
2019-02-18T11:48:17.974Z,14.90
2019-02-18T11:50:46.296Z,14.80
2019-02-18T11:53:14.232Z,14.90
2019-02-18T11:55:42.380Z,14.60
2019-02-18T11:58:10.384Z,14.60
2019-02-18T12:00:38.432Z,14.70
2019-02-18T12:03:11.670Z,14.50
2019-02-18T12:05:36.464Z,14.70
2019-02-18T12:08:05.010Z,14.80
2019-02-18T12:10:33.063Z,15.10
2019-02-18T12:13:01.032Z,14.90
2019-02-18T12:15:29.062Z,15.00
2019-02-18T12:17:57.042Z,15.30
2019-02-18T12:20:25.331Z,15.50
2019-02-18T12:22:53.334Z,15.50
2019-02-18T12:25:21.714Z,15.50
2019-02-18T12:27:49.649Z,15.40
2019-02-18T12:30:18.113Z,15.20
2019-02-18T12:32:46.213Z,15.50
2019-02-18T12:35:14.386Z,15.70
2019-02-18T12:37:42.265Z,15.80
2019-02-18T12:40:10.533Z,15.70
2019-02-18T12:42:38.538Z,15.70
2019-02-18T12:45:07.659Z,15.80
2019-02-18T12:47:35.570Z,16.10
2019-02-18T12:50:04.012Z,16.20
2019-02-18T12:52:32.021Z,16.30
2019-02-18T12:55:00.506Z,16.20
2019-02-18T12:57:28.890Z,16.20
2019-02-18T12:59:57.297Z,16.60
2019-02-18T13:02:25.306Z,16.90
2019-02-18T13:04:53.865Z,17.30
2019-02-18T13:07:22.023Z,17.20
2019-02-18T13:09:50.006Z,17.30
2019-02-18T13:12:18.037Z,17.30
2019-02-18T13:14:46.100Z,17.30
2019-02-18T13:17:14.080Z,17.50
2019-02-18T13:19:42.377Z,17.80
2019-02-18T13:22:10.384Z,17.90
2019-02-18T13:24:38.494Z,17.90
2019-02-18T13:27:06.709Z,17.70
2019-02-18T13:29:34.683Z,17.50
2019-02-18T13:32:02.657Z,17.60
2019-02-18T13:34:31.310Z,17.70
2019-02-18T13:37:02.239Z,17.80
2019-02-18T13:39:30.657Z,17.90
2019-02-18T13:42:07.088Z,17.80
2019-02-18T13:44:29.020Z,17.80
2019-02-18T13:46:57.346Z,17.80
2019-02-18T13:49:25.601Z,17.90
2019-02-18T13:51:56.644Z,18.00
2019-02-18T13:54:25.051Z,17.90
2019-02-18T13:56:53.927Z,17.70
2019-02-18T13:59:22.812Z,17.50
2019-02-18T14:01:51.680Z,17.40
2019-02-18T14:04:20.447Z,17.40
2019-02-18T14:06:49.159Z,17.40
2019-02-18T14:09:18.428Z,17.50
2019-02-18T14:11:49.079Z,17.50
2019-02-18T14:14:17.580Z,17.50
2019-02-18T14:16:46.536Z,17.40
2019-02-18T14:19:16.766Z,17.40
2019-02-18T14:21:46.424Z,17.50
2019-02-18T14:24:16.074Z,17.50
2019-02-18T14:26:44.958Z,17.50
2019-02-18T14:29:14.293Z,17.50
2019-02-18T14:31:44.366Z,17.50
2019-02-18T14:34:12.935Z,17.60
2019-02-18T14:36:41.545Z,17.70
2019-02-18T14:39:18.972Z,17.80
2019-02-18T14:41:47.913Z,17.80
2019-02-18T14:44:16.006Z,17.80
2019-02-18T14:46:44.865Z,17.70
2019-02-18T14:49:14.051Z,17.50
2019-02-18T14:51:42.370Z,17.40
2019-02-18T14:54:11.191Z,17.40
2019-02-18T14:56:41.046Z,17.30
2019-02-18T14:59:09.153Z,17.20
2019-02-18T15:01:37.369Z,17.20
2019-02-18T15:04:06.164Z,17.20
2019-02-18T15:06:34.928Z,17.30
2019-02-18T15:09:03.501Z,17.30
2019-02-18T15:11:32.134Z,17.20
2019-02-18T15:14:00.542Z,17.20
2019-02-18T15:16:29.514Z,17.20
2019-02-18T15:18:58.050Z,17.20
2019-02-18T15:21:26.874Z,17.20
2019-02-18T15:23:55.222Z,17.20
2019-02-18T15:26:24.533Z,17.10
2019-02-18T15:28:53.618Z,17.10
2019-02-18T15:31:23.054Z,17.00
2019-02-18T15:33:51.128Z,17.00
2019-02-18T15:36:19.269Z,17.00
2019-02-18T15:38:48.619Z,16.90
2019-02-18T15:41:17.454Z,16.80
2019-02-18T15:43:46.245Z,16.80
2019-02-18T15:46:14.312Z,16.70
2019-02-18T15:48:42.772Z,16.60
2019-02-18T15:51:10.835Z,16.40
2019-02-18T15:53:39.090Z,16.30
2019-02-18T15:56:07.409Z,16.20
2019-02-18T15:58:35.596Z,16.00
2019-02-18T16:01:05.184Z,15.90
2019-02-18T16:03:33.339Z,15.60
2019-02-18T16:06:01.710Z,15.40
2019-02-18T16:08:30.522Z,15.20
2019-02-18T16:10:58.464Z,15.00
2019-02-18T16:13:27.668Z,14.80
2019-02-18T16:15:55.632Z,14.60
2019-02-18T16:18:24.118Z,14.30
2019-02-18T16:20:52.404Z,14.50
2019-02-18T16:23:20.411Z,14.50
2019-02-18T16:25:48.884Z,14.50
2019-02-18T16:28:17.001Z,14.10
2019-02-18T16:30:45.051Z,14.00
2019-02-18T16:33:13.298Z,13.80
2019-02-18T16:35:41.817Z,13.50
2019-02-18T16:38:10.194Z,13.40
2019-02-18T16:40:38.371Z,13.10
2019-02-18T16:43:06.376Z,12.90
2019-02-18T16:45:34.650Z,12.50
2019-02-18T16:48:03.007Z,12.40
2019-02-18T16:50:30.894Z,12.10
2019-02-18T16:52:58.787Z,12.00
2019-02-18T16:55:26.967Z,11.90
2019-02-18T16:57:55.303Z,11.90
2019-02-18T17:00:28.287Z,11.80
2019-02-18T17:02:56.343Z,11.40
2019-02-18T17:05:24.449Z,11.30
2019-02-18T17:07:52.629Z,11.30
2019-02-18T17:10:20.845Z,11.20
2019-02-18T17:12:49.226Z,11.10
2019-02-18T17:15:17.656Z,11.00
2019-02-18T17:17:45.973Z,10.90
2019-02-18T17:20:14.264Z,10.80
2019-02-18T17:22:42.141Z,10.60
2019-02-18T17:25:10.378Z,10.40
2019-02-18T17:27:38.300Z,10.40
2019-02-18T17:30:08.635Z,10.20
2019-02-18T17:32:37.271Z,10.00
2019-02-18T17:35:07.488Z,10.00
2019-02-18T17:37:36.807Z,9.90
2019-02-18T17:40:05.772Z,9.80
2019-02-18T17:42:33.678Z,9.70
2019-02-18T17:45:02.229Z,9.70
2019-02-18T17:47:30.189Z,9.50
2019-02-18T17:49:58.570Z,9.30
2019-02-18T17:52:26.596Z,9.40
2019-02-18T17:54:54.725Z,9.40
2019-02-18T17:57:23.350Z,9.30
2019-02-18T17:59:51.776Z,9.20
2019-02-18T18:02:20.223Z,9.20
2019-02-18T18:04:48.442Z,9.20
2019-02-18T18:07:16.493Z,9.10
2019-02-18T18:09:44.772Z,8.90
2019-02-18T18:12:12.838Z,8.90
2019-02-18T18:14:40.891Z,8.80
2019-02-18T18:17:11.688Z,8.80
2019-02-18T18:19:39.648Z,8.80
2019-02-18T18:22:08.007Z,8.80
2019-02-18T18:24:36.100Z,8.70
2019-02-18T18:27:04.020Z,8.70
2019-02-18T18:29:31.963Z,8.70
2019-02-18T18:32:00.015Z,8.70
2019-02-18T18:34:28.291Z,8.70
2019-02-18T18:36:56.276Z,8.60
2019-02-18T18:39:24.189Z,8.50
2019-02-18T18:41:52.338Z,8.50
2019-02-18T18:44:20.361Z,8.30
2019-02-18T18:46:48.381Z,8.20
2019-02-18T18:49:16.681Z,8.10
2019-02-18T18:51:44.759Z,8.10
2019-02-18T18:54:13.203Z,7.90
2019-02-18T18:56:41.376Z,8.20
2019-02-18T18:59:09.529Z,8.40
2019-02-18T19:01:38.119Z,8.50
2019-02-18T19:04:06.066Z,8.50
2019-02-18T19:06:34.976Z,8.30
2019-02-18T19:09:03.724Z,8.10
2019-02-18T19:11:31.702Z,8.10
2019-02-18T19:13:59.817Z,8.30
2019-02-18T19:16:27.940Z,8.20
2019-02-18T19:18:56.423Z,8.10
2019-02-18T19:21:24.864Z,8.00
2019-02-18T19:23:52.770Z,8.10
2019-02-18T19:26:20.808Z,8.10
2019-02-18T19:28:48.777Z,7.80
2019-02-18T19:31:16.955Z,7.60
2019-02-18T19:33:44.877Z,7.70
2019-02-18T19:36:13.108Z,8.00
2019-02-18T19:38:41.410Z,8.10
2019-02-18T19:41:09.501Z,8.10
2019-02-18T19:43:37.743Z,8.00
2019-02-18T19:46:05.837Z,8.00
2019-02-18T19:48:33.743Z,8.10
2019-02-18T19:51:02.964Z,8.00
2019-02-18T19:53:31.076Z,7.90
2019-02-18T19:55:59.089Z,8.00
2019-02-18T19:58:27.114Z,7.90
2019-02-18T20:00:55.161Z,7.90
2019-02-18T20:03:23.334Z,7.60
2019-02-18T20:05:51.868Z,7.80
2019-02-18T20:08:20.115Z,7.60
2019-02-18T20:10:48.425Z,7.40
2019-02-18T20:13:16.421Z,7.30
2019-02-18T20:15:44.558Z,7.20
2019-02-18T20:18:13.806Z,7.20
2019-02-18T20:20:42.245Z,7.00
2019-02-18T20:23:10.741Z,7.30
2019-02-18T20:25:39.227Z,7.20
2019-02-18T20:28:07.462Z,7.40
2019-02-18T20:30:35.703Z,7.40
2019-02-18T20:33:04.063Z,7.40
2019-02-18T20:35:32.069Z,7.40
2019-02-18T20:38:00.151Z,7.50
2019-02-18T20:40:28.146Z,7.50
2019-02-18T20:42:56.107Z,7.50
2019-02-18T20:45:24.026Z,7.50
2019-02-18T20:47:52.116Z,7.60
2019-02-18T20:50:20.049Z,7.60
2019-02-18T20:52:48.438Z,7.50
2019-02-18T20:55:17.326Z,7.40
2019-02-18T20:57:45.475Z,7.60
2019-02-18T21:00:16.434Z,7.70
2019-02-18T21:02:44.854Z,7.50
2019-02-18T21:05:12.855Z,7.40
2019-02-18T21:07:40.847Z,7.50
2019-02-18T21:10:10.760Z,7.40
2019-02-18T21:12:38.891Z,7.30
2019-02-18T21:15:07.352Z,7.50
2019-02-18T21:17:35.406Z,7.30
2019-02-18T21:20:04.556Z,7.40
2019-02-18T21:22:38.767Z,7.30
2019-02-18T21:25:07.326Z,7.40
2019-02-18T21:27:35.349Z,7.30
2019-02-18T21:30:03.554Z,7.50
2019-02-18T21:32:31.574Z,7.40
2019-02-18T21:34:59.560Z,7.40
2019-02-18T21:37:27.738Z,7.50
2019-02-18T21:39:55.858Z,7.40
2019-02-18T21:42:23.971Z,7.60
2019-02-18T21:44:52.025Z,7.60
2019-02-18T21:47:20.369Z,7.50
2019-02-18T21:49:51.094Z,7.40
2019-02-18T21:52:19.231Z,7.30
2019-02-18T21:54:47.229Z,7.30
2019-02-18T21:57:15.711Z,7.30
2019-02-18T21:59:43.915Z,7.30
2019-02-18T22:02:12.312Z,7.20
2019-02-18T22:04:40.427Z,7.10
2019-02-18T22:07:08.708Z,7.10
2019-02-18T22:09:42.126Z,7.40
2019-02-18T22:12:10.935Z,7.10
2019-02-18T22:14:38.838Z,7.10
2019-02-18T22:17:06.718Z,7.30
2019-02-18T22:19:34.740Z,7.20
2019-02-18T22:22:03.144Z,7.40
2019-02-18T22:24:31.409Z,7.60
2019-02-18T22:26:59.671Z,7.40
2019-02-18T22:29:29.836Z,7.60
2019-02-18T22:31:58.089Z,7.70
2019-02-18T22:34:26.146Z,7.60
2019-02-18T22:36:54.476Z,7.60
2019-02-18T22:39:22.884Z,7.80
2019-02-18T22:41:51.501Z,7.60
2019-02-18T22:44:20.774Z,7.30
2019-02-18T22:46:50.082Z,7.40
2019-02-18T22:49:19.210Z,7.30
2019-02-18T22:51:47.743Z,7.20
2019-02-18T22:54:16.214Z,7.40
2019-02-18T22:56:44.972Z,7.40
2019-02-18T22:59:13.711Z,7.50
2019-02-18T23:01:42.605Z,7.30
2019-02-18T23:04:10.715Z,7.30
2019-02-18T23:06:39.231Z,7.40
2019-02-18T23:09:12.037Z,7.50
2019-02-18T23:11:40.630Z,7.50
2019-02-18T23:14:08.842Z,7.30
2019-02-18T23:16:37.274Z,7.60
2019-02-18T23:19:06.370Z,7.70
2019-02-18T23:21:34.619Z,7.60
2019-02-18T23:24:02.847Z,7.70
2019-02-18T23:26:30.972Z,7.50
2019-02-18T23:28:59.263Z,7.40
2019-02-18T23:31:27.747Z,7.40
2019-02-18T23:33:55.869Z,7.60
2019-02-18T23:36:24.022Z,7.60
2019-02-18T23:38:52.429Z,7.60
2019-02-18T23:41:20.478Z,7.70
2019-02-18T23:43:48.733Z,8.10
2019-02-18T23:46:16.863Z,8.00
2019-02-18T23:48:44.945Z,8.30
2019-02-18T23:51:12.996Z,8.50
2019-02-18T23:53:41.392Z,8.30
2019-02-18T23:56:09.391Z,8.40
2019-02-18T23:58:37.645Z,8.20
